sensor_id;sensor_type;location;lat;lon;timestamp;pressure;altitude;pressure_sealevel;temperature
69435;BMP180;56625;54.322;18.582;2023-04-06T00:02:27;101694.80;;;-0.10
69435;BMP180;56625;54.322;18.582;2023-04-06T00:04:55;101696.40;;;-0.10
69435;BMP180;56625;54.322;18.582;2023-04-06T00:07:23;101691.20;;;-0.10
69435;BMP180;56625;54.322;18.582;2023-04-06T00:09:51;101694.40;;;-0.10
69435;BMP180;56625;54.322;18.582;2023-04-06T00:12:19;101698.00;;;-0.10
69435;BMP180;56625;54.322;18.582;2023-04-06T00:14:47;101686.60;;;-0.10
69435;BMP180;56625;54.322;18.582;2023-04-06T00:17:14;101687.00;;;0.00
69435;BMP180;56625;54.322;18.582;2023-04-06T00:19:42;101684.60;;;0.00
69435;BMP180;56625;54.322;18.582;2023-04-06T00:22:10;101682.80;;;0.00
69435;BMP180;56625;54.322;18.582;2023-04-06T00:24:38;101683.00;;;0.10
69435;BMP180;56625;54.322;18.582;2023-04-06T00:27:06;101682.20;;;0.08
69435;BMP180;56625;54.322;18.582;2023-04-06T00:29:34;101684.20;;;0.00
69435;BMP180;56625;54.322;18.582;2023-04-06T00:32:02;101682.40;;;0.00
69435;BMP180;56625;54.322;18.582;2023-04-06T00:34:30;101683.00;;;0.08
69435;BMP180;56625;54.322;18.582;2023-04-06T00:36:58;101681.80;;;0.10
69435;BMP180;56625;54.322;18.582;2023-04-06T00:39:27;101687.80;;;0.10
69435;BMP180;56625;54.322;18.582;2023-04-06T00:41:55;101687.40;;;0.20
69435;BMP180;56625;54.322;18.582;2023-04-06T00:44:24;101684.20;;;0.32
69435;BMP180;56625;54.322;18.582;2023-04-06T00:46:52;101683.80;;;0.40
69435;BMP180;56625;54.322;18.582;2023-04-06T00:49:20;101678.00;;;0.40
69435;BMP180;56625;54.322;18.582;2023-04-06T00:51:48;101675.20;;;0.32
69435;BMP180;56625;54.322;18.582;2023-04-06T00:54:16;101668.40;;;0.30
69435;BMP180;56625;54.322;18.582;2023-04-06T00:56:44;101671.60;;;0.22
69435;BMP180;56625;54.322;18.582;2023-04-06T00:59:12;101672.80;;;0.10
69435;BMP180;56625;54.322;18.582;2023-04-06T01:01:40;101672.60;;;0.10
69435;BMP180;56625;54.322;18.582;2023-04-06T01:04:08;101667.40;;;0.20
69435;BMP180;56625;54.322;18.582;2023-04-06T01:06:36;101669.60;;;0.10
69435;BMP180;56625;54.322;18.582;2023-04-06T01:09:04;101663.40;;;0.00
69435;BMP180;56625;54.322;18.582;2023-04-06T01:11:32;101669.60;;;-0.10
69435;BMP180;56625;54.322;18.582;2023-04-06T01:14:00;101670.40;;;-0.18
69435;BMP180;56625;54.322;18.582;2023-04-06T01:16:28;101667.80;;;-0.18
69435;BMP180;56625;54.322;18.582;2023-04-06T01:18:56;101668.20;;;-0.20
69435;BMP180;56625;54.322;18.582;2023-04-06T01:21:24;101664.00;;;-0.14
69435;BMP180;56625;54.322;18.582;2023-04-06T01:23:53;101659.00;;;-0.10
69435;BMP180;56625;54.322;18.582;2023-04-06T01:26:21;101659.40;;;-0.10
69435;BMP180;56625;54.322;18.582;2023-04-06T01:28:48;101658.60;;;-0.10
69435;BMP180;56625;54.322;18.582;2023-04-06T01:31:16;101655.40;;;-0.10
69435;BMP180;56625;54.322;18.582;2023-04-06T01:33:44;101657.60;;;-0.20
69435;BMP180;56625;54.322;18.582;2023-04-06T01:36:13;101656.60;;;-0.10
69435;BMP180;56625;54.322;18.582;2023-04-06T01:38:41;101654.20;;;-0.10
69435;BMP180;56625;54.322;18.582;2023-04-06T01:41:09;101652.00;;;-0.04
69435;BMP180;56625;54.322;18.582;2023-04-06T01:43:38;101649.40;;;0.00
69435;BMP180;56625;54.322;18.582;2023-04-06T01:46:06;101650.00;;;0.00
69435;BMP180;56625;54.322;18.582;2023-04-06T01:48:34;101656.40;;;-0.18
69435;BMP180;56625;54.322;18.582;2023-04-06T01:51:02;101654.00;;;-0.28
69435;BMP180;56625;54.322;18.582;2023-04-06T01:53:30;101654.40;;;-0.20
69435;BMP180;56625;54.322;18.582;2023-04-06T01:55:58;101655.20;;;-0.20
69435;BMP180;56625;54.322;18.582;2023-04-06T01:58:25;101656.80;;;-0.30
69435;BMP180;56625;54.322;18.582;2023-04-06T02:00:53;101652.60;;;-0.30
69435;BMP180;56625;54.322;18.582;2023-04-06T02:03:22;101655.80;;;-0.30
69435;BMP180;56625;54.322;18.582;2023-04-06T02:05:49;101651.20;;;-0.30
69435;BMP180;56625;54.322;18.582;2023-04-06T02:08:17;101654.40;;;-0.30
69435;BMP180;56625;54.322;18.582;2023-04-06T02:10:45;101654.00;;;-0.40
69435;BMP180;56625;54.322;18.582;2023-04-06T02:13:13;101654.80;;;-0.50
69435;BMP180;56625;54.322;18.582;2023-04-06T02:15:41;101658.20;;;-0.50
69435;BMP180;56625;54.322;18.582;2023-04-06T02:18:09;101656.00;;;-0.40
69435;BMP180;56625;54.322;18.582;2023-04-06T02:20:37;101655.00;;;-0.50
69435;BMP180;56625;54.322;18.582;2023-04-06T02:23:05;101657.80;;;-0.60
69435;BMP180;56625;54.322;18.582;2023-04-06T02:25:33;101659.40;;;-0.70
69435;BMP180;56625;54.322;18.582;2023-04-06T02:28:01;101654.40;;;-0.70
69435;BMP180;56625;54.322;18.582;2023-04-06T02:30:29;101660.40;;;-0.70
69435;BMP180;56625;54.322;18.582;2023-04-06T02:32:57;101655.00;;;-0.70
69435;BMP180;56625;54.322;18.582;2023-04-06T02:35:25;101649.00;;;-0.80
69435;BMP180;56625;54.322;18.582;2023-04-06T02:37:53;101659.60;;;-0.88
69435;BMP180;56625;54.322;18.582;2023-04-06T02:40:21;101660.80;;;-0.90
69435;BMP180;56625;54.322;18.582;2023-04-06T02:42:49;101663.40;;;-0.90
69435;BMP180;56625;54.322;18.582;2023-04-06T02:45:17;101664.60;;;-0.90
69435;BMP180;56625;54.322;18.582;2023-04-06T02:47:45;101663.20;;;-0.90
69435;BMP180;56625;54.322;18.582;2023-04-06T02:50:13;101662.80;;;-0.80
69435;BMP180;56625;54.322;18.582;2023-04-06T02:52:41;101658.20;;;-0.80
69435;BMP180;56625;54.322;18.582;2023-04-06T02:55:09;101662.20;;;-0.80
69435;BMP180;56625;54.322;18.582;2023-04-06T02:57:37;101668.40;;;-0.98
69435;BMP180;56625;54.322;18.582;2023-04-06T03:00:06;101666.20;;;-1.00
69435;BMP180;56625;54.322;18.582;2023-04-06T03:02:34;101670.60;;;-1.02
69435;BMP180;56625;54.322;18.582;2023-04-06T03:05:03;101672.00;;;-1.10
69435;BMP180;56625;54.322;18.582;2023-04-06T03:07:31;101665.60;;;-1.20
69435;BMP180;56625;54.322;18.582;2023-04-06T03:09:59;101666.60;;;-1.30
69435;BMP180;56625;54.322;18.582;2023-04-06T03:12:27;101661.00;;;-1.40
69435;BMP180;56625;54.322;18.582;2023-04-06T03:14:54;101661.20;;;-1.46
69435;BMP180;56625;54.322;18.582;2023-04-06T03:17:22;101661.40;;;-1.50
69435;BMP180;56625;54.322;18.582;2023-04-06T03:19:50;101660.40;;;-1.50
69435;BMP180;56625;54.322;18.582;2023-04-06T03:22:19;101660.40;;;-1.60
69435;BMP180;56625;54.322;18.582;2023-04-06T03:24:47;101669.60;;;-1.60
69435;BMP180;56625;54.322;18.582;2023-04-06T03:27:15;101666.40;;;-1.60
69435;BMP180;56625;54.322;18.582;2023-04-06T03:29:43;101671.20;;;-1.64
69435;BMP180;56625;54.322;18.582;2023-04-06T03:32:11;101675.60;;;-1.66
69435;BMP180;56625;54.322;18.582;2023-04-06T03:34:39;101669.80;;;-1.66
69435;BMP180;56625;54.322;18.582;2023-04-06T03:37:07;101672.40;;;-1.68
69435;BMP180;56625;54.322;18.582;2023-04-06T03:39:37;101676.00;;;-1.66
69435;BMP180;56625;54.322;18.582;2023-04-06T03:42:05;101675.40;;;-1.70
69435;BMP180;56625;54.322;18.582;2023-04-06T03:44:33;101678.00;;;-1.70
69435;BMP180;56625;54.322;18.582;2023-04-06T03:47:00;101685.80;;;-1.70
69435;BMP180;56625;54.322;18.582;2023-04-06T03:49:29;101683.80;;;-1.70
69435;BMP180;56625;54.322;18.582;2023-04-06T03:51:57;101686.20;;;-1.72
69435;BMP180;56625;54.322;18.582;2023-04-06T03:54:25;101694.00;;;-1.72
69435;BMP180;56625;54.322;18.582;2023-04-06T03:56:53;101693.80;;;-1.72
69435;BMP180;56625;54.322;18.582;2023-04-06T03:59:21;101693.80;;;-1.80
69435;BMP180;56625;54.322;18.582;2023-04-06T04:01:49;101697.60;;;-1.80
69435;BMP180;56625;54.322;18.582;2023-04-06T04:04:17;101699.00;;;-1.82
69435;BMP180;56625;54.322;18.582;2023-04-06T04:06:45;101702.20;;;-1.90
69435;BMP180;56625;54.322;18.582;2023-04-06T04:09:13;101704.60;;;-1.90
69435;BMP180;56625;54.322;18.582;2023-04-06T04:11:41;101704.40;;;-1.90
69435;BMP180;56625;54.322;18.582;2023-04-06T04:14:09;101699.00;;;-1.94
69435;BMP180;56625;54.322;18.582;2023-04-06T04:16:37;101697.00;;;-2.00
69435;BMP180;56625;54.322;18.582;2023-04-06T04:19:07;101695.00;;;-2.00
69435;BMP180;56625;54.322;18.582;2023-04-06T04:21:46;101696.00;;;-2.00
69435;BMP180;56625;54.322;18.582;2023-04-06T04:24:14;101698.40;;;-2.00
69435;BMP180;56625;54.322;18.582;2023-04-06T04:26:42;101696.80;;;-1.90
69435;BMP180;56625;54.322;18.582;2023-04-06T04:29:10;101697.60;;;-1.90
69435;BMP180;56625;54.322;18.582;2023-04-06T04:31:37;101696.00;;;-1.82
69435;BMP180;56625;54.322;18.582;2023-04-06T04:34:05;101693.00;;;-1.80
69435;BMP180;56625;54.322;18.582;2023-04-06T04:36:34;101698.20;;;-1.80
69435;BMP180;56625;54.322;18.582;2023-04-06T04:39:02;101697.60;;;-1.80
69435;BMP180;56625;54.322;18.582;2023-04-06T04:41:30;101700.40;;;-1.70
69435;BMP180;56625;54.322;18.582;2023-04-06T04:43:58;101696.60;;;-1.60
69435;BMP180;56625;54.322;18.582;2023-04-06T04:46:27;101699.80;;;-1.60
69435;BMP180;56625;54.322;18.582;2023-04-06T04:48:55;101691.20;;;-1.50
69435;BMP180;56625;54.322;18.582;2023-04-06T04:51:23;101694.00;;;-1.40
69435;BMP180;56625;54.322;18.582;2023-04-06T04:53:52;101698.40;;;-1.28
69435;BMP180;56625;54.322;18.582;2023-04-06T04:56:20;101699.40;;;-1.10
69435;BMP180;56625;54.322;18.582;2023-04-06T04:58:48;101695.40;;;-1.00
69435;BMP180;56625;54.322;18.582;2023-04-06T05:01:16;101696.20;;;-0.80
69435;BMP180;56625;54.322;18.582;2023-04-06T05:03:44;101696.00;;;-0.72
69435;BMP180;56625;54.322;18.582;2023-04-06T05:06:12;101696.40;;;-0.58
69435;BMP180;56625;54.322;18.582;2023-04-06T05:08:41;101688.60;;;-0.40
69435;BMP180;56625;54.322;18.582;2023-04-06T05:11:10;101692.40;;;-0.28
69435;BMP180;56625;54.322;18.582;2023-04-06T05:13:38;101693.60;;;-0.20
69435;BMP180;56625;54.322;18.582;2023-04-06T05:16:06;101693.00;;;-0.10
69435;BMP180;56625;54.322;18.582;2023-04-06T05:18:34;101687.40;;;0.00
69435;BMP180;56625;54.322;18.582;2023-04-06T05:21:02;101691.20;;;0.10
69435;BMP180;56625;54.322;18.582;2023-04-06T05:23:30;101695.60;;;0.10
69435;BMP180;56625;54.322;18.582;2023-04-06T05:25:58;101692.40;;;0.20
69435;BMP180;56625;54.322;18.582;2023-04-06T05:28:26;101697.20;;;0.28
69435;BMP180;56625;54.322;18.582;2023-04-06T05:30:54;101698.60;;;0.30
69435;BMP180;56625;54.322;18.582;2023-04-06T05:33:23;101694.00;;;0.40
69435;BMP180;56625;54.322;18.582;2023-04-06T05:35:51;101699.60;;;0.40
69435;BMP180;56625;54.322;18.582;2023-04-06T05:38:19;101694.40;;;0.42
69435;BMP180;56625;54.322;18.582;2023-04-06T05:40:47;101693.40;;;0.60
69435;BMP180;56625;54.322;18.582;2023-04-06T05:43:15;101696.00;;;0.70
69435;BMP180;56625;54.322;18.582;2023-04-06T05:45:46;101693.20;;;0.72
69435;BMP180;56625;54.322;18.582;2023-04-06T05:48:13;101688.00;;;0.88
69435;BMP180;56625;54.322;18.582;2023-04-06T05:50:41;101687.80;;;1.00
69435;BMP180;56625;54.322;18.582;2023-04-06T05:53:09;101686.80;;;1.10
69435;BMP180;56625;54.322;18.582;2023-04-06T05:55:37;101687.80;;;1.20
69435;BMP180;56625;54.322;18.582;2023-04-06T05:58:05;101685.80;;;1.32
69435;BMP180;56625;54.322;18.582;2023-04-06T06:00:33;101688.80;;;1.48
69435;BMP180;56625;54.322;18.582;2023-04-06T06:03:01;101685.80;;;1.60
69435;BMP180;56625;54.322;18.582;2023-04-06T06:05:31;101680.40;;;1.76
69435;BMP180;56625;54.322;18.582;2023-04-06T06:07:59;101683.00;;;1.90
69435;BMP180;56625;54.322;18.582;2023-04-06T06:10:30;101678.80;;;2.10
69435;BMP180;56625;54.322;18.582;2023-04-06T06:12:57;101678.40;;;2.24
69435;BMP180;56625;54.322;18.582;2023-04-06T06:15:25;101681.20;;;2.40
69435;BMP180;56625;54.322;18.582;2023-04-06T06:17:53;101681.60;;;2.60
69435;BMP180;56625;54.322;18.582;2023-04-06T06:20:21;101677.60;;;2.80
69435;BMP180;56625;54.322;18.582;2023-04-06T06:22:49;101678.80;;;3.06
69435;BMP180;56625;54.322;18.582;2023-04-06T06:25:17;101673.20;;;3.30
69435;BMP180;56625;54.322;18.582;2023-04-06T06:27:45;101670.60;;;3.60
69435;BMP180;56625;54.322;18.582;2023-04-06T06:30:13;101668.00;;;3.80
69435;BMP180;56625;54.322;18.582;2023-04-06T06:32:42;101669.20;;;3.94
69435;BMP180;56625;54.322;18.582;2023-04-06T06:35:10;101666.00;;;4.10
69435;BMP180;56625;54.322;18.582;2023-04-06T06:37:38;101666.20;;;4.22
69435;BMP180;56625;54.322;18.582;2023-04-06T06:40:08;101665.20;;;4.42
69435;BMP180;56625;54.322;18.582;2023-04-06T06:42:38;101662.00;;;4.54
69435;BMP180;56625;54.322;18.582;2023-04-06T06:45:12;101661.60;;;4.70
69435;BMP180;56625;54.322;18.582;2023-04-06T06:47:40;101657.00;;;4.80
69435;BMP180;56625;54.322;18.582;2023-04-06T06:50:09;101655.60;;;4.80
69435;BMP180;56625;54.322;18.582;2023-04-06T06:52:37;101660.40;;;4.80
69435;BMP180;56625;54.322;18.582;2023-04-06T06:55:09;101661.60;;;4.90
69435;BMP180;56625;54.322;18.582;2023-04-06T06:57:41;101654.00;;;5.00
69435;BMP180;56625;54.322;18.582;2023-04-06T07:00:11;101662.80;;;5.10
69435;BMP180;56625;54.322;18.582;2023-04-06T07:02:41;101660.40;;;5.20
69435;BMP180;56625;54.322;18.582;2023-04-06T07:05:09;101659.60;;;5.40
69435;BMP180;56625;54.322;18.582;2023-04-06T07:07:55;101655.00;;;5.52
69435;BMP180;56625;54.322;18.582;2023-04-06T07:10:24;101660.60;;;5.60
69435;BMP180;56625;54.322;18.582;2023-04-06T07:12:52;101654.60;;;5.60
69435;BMP180;56625;54.322;18.582;2023-04-06T07:15:19;101658.40;;;5.60
69435;BMP180;56625;54.322;18.582;2023-04-06T07:17:47;101654.00;;;5.80
69435;BMP180;56625;54.322;18.582;2023-04-06T07:20:15;101653.40;;;6.00
69435;BMP180;56625;54.322;18.582;2023-04-06T07:22:43;101654.60;;;6.10
69435;BMP180;56625;54.322;18.582;2023-04-06T07:25:15;101657.40;;;6.26
69435;BMP180;56625;54.322;18.582;2023-04-06T07:27:44;101655.20;;;6.30
69435;BMP180;56625;54.322;18.582;2023-04-06T07:30:12;101654.60;;;6.30
69435;BMP180;56625;54.322;18.582;2023-04-06T07:32:40;101652.80;;;6.24
69435;BMP180;56625;54.322;18.582;2023-04-06T07:35:08;101660.40;;;6.02
69435;BMP180;56625;54.322;18.582;2023-04-06T07:37:36;101657.80;;;5.74
69435;BMP180;56625;54.322;18.582;2023-04-06T07:40:05;101664.20;;;5.60
69435;BMP180;56625;54.322;18.582;2023-04-06T07:42:34;101662.60;;;5.50
69435;BMP180;56625;54.322;18.582;2023-04-06T07:45:02;101661.20;;;5.40
69435;BMP180;56625;54.322;18.582;2023-04-06T07:47:30;101661.40;;;5.38
69435;BMP180;56625;54.322;18.582;2023-04-06T07:49:58;101662.40;;;5.30
69435;BMP180;56625;54.322;18.582;2023-04-06T07:52:26;101661.20;;;5.30
69435;BMP180;56625;54.322;18.582;2023-04-06T07:54:54;101661.00;;;5.38
69435;BMP180;56625;54.322;18.582;2023-04-06T07:57:22;101657.40;;;5.38
69435;BMP180;56625;54.322;18.582;2023-04-06T07:59:50;101664.60;;;5.30
69435;BMP180;56625;54.322;18.582;2023-04-06T08:02:18;101661.60;;;5.22
69435;BMP180;56625;54.322;18.582;2023-04-06T08:04:46;101662.00;;;5.20
69435;BMP180;56625;54.322;18.582;2023-04-06T08:07:14;101660.20;;;5.24
69435;BMP180;56625;54.322;18.582;2023-04-06T08:09:42;101660.40;;;5.50
69435;BMP180;56625;54.322;18.582;2023-04-06T08:12:11;101651.00;;;5.80
69435;BMP180;56625;54.322;18.582;2023-04-06T08:14:40;101654.80;;;5.94
69435;BMP180;56625;54.322;18.582;2023-04-06T08:17:09;101651.60;;;5.80
69435;BMP180;56625;54.322;18.582;2023-04-06T08:19:37;101666.20;;;5.50
69435;BMP180;56625;54.322;18.582;2023-04-06T08:22:05;101666.40;;;5.20
69435;BMP180;56625;54.322;18.582;2023-04-06T08:24:33;101670.60;;;5.10
69435;BMP180;56625;54.322;18.582;2023-04-06T08:27:01;101660.80;;;5.00
69435;BMP180;56625;54.322;18.582;2023-04-06T08:29:30;101664.20;;;4.90
69435;BMP180;56625;54.322;18.582;2023-04-06T08:31:57;101660.60;;;4.90
69435;BMP180;56625;54.322;18.582;2023-04-06T08:34:25;101666.60;;;5.00
69435;BMP180;56625;54.322;18.582;2023-04-06T08:36:54;101668.20;;;5.10
69435;BMP180;56625;54.322;18.582;2023-04-06T08:39:22;101666.60;;;5.36
69435;BMP180;56625;54.322;18.582;2023-04-06T08:41:53;101668.60;;;5.50
69435;BMP180;56625;54.322;18.582;2023-04-06T08:44:24;101663.80;;;5.58
69435;BMP180;56625;54.322;18.582;2023-04-06T08:46:52;101657.20;;;5.78
69435;BMP180;56625;54.322;18.582;2023-04-06T08:49:21;101662.60;;;6.00
69435;BMP180;56625;54.322;18.582;2023-04-06T08:51:49;101654.40;;;6.20
69435;BMP180;56625;54.322;18.582;2023-04-06T08:54:26;101651.60;;;6.28
69435;BMP180;56625;54.322;18.582;2023-04-06T08:56:54;101658.00;;;6.30
69435;BMP180;56625;54.322;18.582;2023-04-06T08:59:25;101660.40;;;6.12
69435;BMP180;56625;54.322;18.582;2023-04-06T09:01:55;101667.40;;;5.96
69435;BMP180;56625;54.322;18.582;2023-04-06T09:04:23;101657.40;;;6.02
69435;BMP180;56625;54.322;18.582;2023-04-06T09:06:51;101661.20;;;6.20
69435;BMP180;56625;54.322;18.582;2023-04-06T09:09:20;101661.20;;;6.30
69435;BMP180;56625;54.322;18.582;2023-04-06T09:11:52;101656.60;;;6.38
69435;BMP180;56625;54.322;18.582;2023-04-06T09:14:37;101652.60;;;6.48
69435;BMP180;56625;54.322;18.582;2023-04-06T09:17:06;101657.20;;;6.40
69435;BMP180;56625;54.322;18.582;2023-04-06T09:19:46;101661.00;;;6.30
69435;BMP180;56625;54.322;18.582;2023-04-06T09:22:14;101654.20;;;6.30
69435;BMP180;56625;54.322;18.582;2023-04-06T09:24:49;101657.00;;;6.00
69435;BMP180;56625;54.322;18.582;2023-04-06T09:27:33;101659.00;;;5.72
69435;BMP180;56625;54.322;18.582;2023-04-06T09:30:11;101662.40;;;5.70
69435;BMP180;56625;54.322;18.582;2023-04-06T09:32:57;101661.80;;;5.62
69435;BMP180;56625;54.322;18.582;2023-04-06T09:35:25;101652.00;;;5.70
69435;BMP180;56625;54.322;18.582;2023-04-06T09:37:58;101654.40;;;5.82
69435;BMP180;56625;54.322;18.582;2023-04-06T09:40:26;101650.00;;;6.06
69435;BMP180;56625;54.322;18.582;2023-04-06T09:42:53;101648.20;;;6.20
69435;BMP180;56625;54.322;18.582;2023-04-06T09:45:27;101653.60;;;6.30
69435;BMP180;56625;54.322;18.582;2023-04-06T09:47:58;101653.40;;;6.20
69435;BMP180;56625;54.322;18.582;2023-04-06T09:50:27;101651.80;;;5.94
69435;BMP180;56625;54.322;18.582;2023-04-06T09:52:58;101654.60;;;5.80
69435;BMP180;56625;54.322;18.582;2023-04-06T09:55:40;101657.80;;;5.80
69435;BMP180;56625;54.322;18.582;2023-04-06T09:58:13;101656.80;;;5.70
69435;BMP180;56625;54.322;18.582;2023-04-06T10:01:10;101658.80;;;5.80
69435;BMP180;56625;54.322;18.582;2023-04-06T10:04:27;101655.80;;;5.90
69435;BMP180;56625;54.322;18.582;2023-04-06T10:06:37;101659.40;;;5.80
69435;BMP180;56625;54.322;18.582;2023-04-06T10:09:08;101661.20;;;5.80
69435;BMP180;56625;54.322;18.582;2023-04-06T10:11:37;101663.60;;;5.80
69435;BMP180;56625;54.322;18.582;2023-04-06T10:14:06;101656.80;;;5.86
69435;BMP180;56625;54.322;18.582;2023-04-06T10:16:35;101661.80;;;5.80
69435;BMP180;56625;54.322;18.582;2023-04-06T10:19:22;101661.00;;;5.80
69435;BMP180;56625;54.322;18.582;2023-04-06T10:21:56;101668.20;;;5.90
69435;BMP180;56625;54.322;18.582;2023-04-06T10:24:25;101663.80;;;5.90
69435;BMP180;56625;54.322;18.582;2023-04-06T10:27:03;101660.80;;;6.10
69435;BMP180;56625;54.322;18.582;2023-04-06T10:30:03;101668.60;;;6.10
69435;BMP180;56625;54.322;18.582;2023-04-06T10:32:38;101668.00;;;6.20
69435;BMP180;56625;54.322;18.582;2023-04-06T10:35:10;101659.40;;;6.30
69435;BMP180;56625;54.322;18.582;2023-04-06T10:38:01;101662.00;;;6.40
69435;BMP180;56625;54.322;18.582;2023-04-06T10:40:29;101656.60;;;6.30
69435;BMP180;56625;54.322;18.582;2023-04-06T10:43:21;101660.20;;;6.20
69435;BMP180;56625;54.322;18.582;2023-04-06T10:45:57;101660.00;;;6.30
69435;BMP180;56625;54.322;18.582;2023-04-06T10:48:43;101663.40;;;6.20
69435;BMP180;56625;54.322;18.582;2023-04-06T10:51:14;101668.40;;;6.30
69435;BMP180;56625;54.322;18.582;2023-04-06T10:53:45;101657.00;;;6.30
69435;BMP180;56625;54.322;18.582;2023-04-06T10:56:22;101649.20;;;6.30
69435;BMP180;56625;54.322;18.582;2023-04-06T10:58:53;101652.20;;;6.20
69435;BMP180;56625;54.322;18.582;2023-04-06T11:01:24;101658.00;;;6.02
69435;BMP180;56625;54.322;18.582;2023-04-06T11:03:57;101661.00;;;6.10
69435;BMP180;56625;54.322;18.582;2023-04-06T11:06:30;101655.60;;;6.10
69435;BMP180;56625;54.322;18.582;2023-04-06T11:09:01;101653.20;;;6.02
69435;BMP180;56625;54.322;18.582;2023-04-06T11:11:29;101655.00;;;5.80
69435;BMP180;56625;54.322;18.582;2023-04-06T11:14:00;101649.00;;;5.70
69435;BMP180;56625;54.322;18.582;2023-04-06T11:16:32;101647.20;;;5.60
69435;BMP180;56625;54.322;18.582;2023-04-06T11:19:05;101646.20;;;5.50
69435;BMP180;56625;54.322;18.582;2023-04-06T11:21:45;101637.20;;;5.50
69435;BMP180;56625;54.322;18.582;2023-04-06T11:24:18;101637.40;;;5.70
69435;BMP180;56625;54.322;18.582;2023-04-06T11:26:52;101648.00;;;5.70
69435;BMP180;56625;54.322;18.582;2023-04-06T11:29:23;101639.80;;;5.70
69435;BMP180;56625;54.322;18.582;2023-04-06T11:32:04;101637.00;;;5.70
69435;BMP180;56625;54.322;18.582;2023-04-06T11:34:37;101644.20;;;5.70
69435;BMP180;56625;54.322;18.582;2023-04-06T11:37:11;101636.80;;;5.80
69435;BMP180;56625;54.322;18.582;2023-04-06T11:39:46;101629.00;;;5.90
69435;BMP180;56625;54.322;18.582;2023-04-06T11:42:28;101631.60;;;5.88
69435;BMP180;56625;54.322;18.582;2023-04-06T11:44:58;101624.40;;;5.90
69435;BMP180;56625;54.322;18.582;2023-04-06T11:47:36;101621.40;;;6.00
69435;BMP180;56625;54.322;18.582;2023-04-06T11:50:11;101621.40;;;6.20
69435;BMP180;56625;54.322;18.582;2023-04-06T11:52:41;101621.20;;;6.30
69435;BMP180;56625;54.322;18.582;2023-04-06T11:55:15;101626.00;;;6.30
69435;BMP180;56625;54.322;18.582;2023-04-06T11:57:44;101608.80;;;6.10
69435;BMP180;56625;54.322;18.582;2023-04-06T12:00:13;101611.80;;;6.10
69435;BMP180;56625;54.322;18.582;2023-04-06T12:02:46;101612.40;;;6.02
69435;BMP180;56625;54.322;18.582;2023-04-06T12:05:14;101606.40;;;6.00
69435;BMP180;56625;54.322;18.582;2023-04-06T12:07:42;101606.20;;;6.16
69435;BMP180;56625;54.322;18.582;2023-04-06T12:10:11;101607.20;;;6.30
69435;BMP180;56625;54.322;18.582;2023-04-06T12:12:39;101602.60;;;6.40
69435;BMP180;56625;54.322;18.582;2023-04-06T12:15:07;101599.00;;;6.50
69435;BMP180;56625;54.322;18.582;2023-04-06T12:17:35;101613.80;;;6.40
69435;BMP180;56625;54.322;18.582;2023-04-06T12:20:04;101606.40;;;6.10
69435;BMP180;56625;54.322;18.582;2023-04-06T12:22:51;101594.20;;;6.10
69435;BMP180;56625;54.322;18.582;2023-04-06T12:25:19;101601.00;;;6.00
69435;BMP180;56625;54.322;18.582;2023-04-06T12:27:48;101591.80;;;5.80
69435;BMP180;56625;54.322;18.582;2023-04-06T12:30:16;101592.80;;;5.80
69435;BMP180;56625;54.322;18.582;2023-04-06T12:32:44;101584.80;;;5.90
69435;BMP180;56625;54.322;18.582;2023-04-06T12:35:12;101581.00;;;6.06
69435;BMP180;56625;54.322;18.582;2023-04-06T12:37:43;101585.40;;;6.10
69435;BMP180;56625;54.322;18.582;2023-04-06T12:40:11;101594.60;;;6.20
69435;BMP180;56625;54.322;18.582;2023-04-06T12:42:39;101586.00;;;6.00
69435;BMP180;56625;54.322;18.582;2023-04-06T12:45:09;101579.20;;;6.06
69435;BMP180;56625;54.322;18.582;2023-04-06T12:47:37;101582.00;;;6.00
69435;BMP180;56625;54.322;18.582;2023-04-06T12:50:06;101581.20;;;6.10
69435;BMP180;56625;54.322;18.582;2023-04-06T12:52:34;101574.20;;;6.10
69435;BMP180;56625;54.322;18.582;2023-04-06T12:55:03;101570.20;;;6.28
69435;BMP180;56625;54.322;18.582;2023-04-06T12:57:32;101574.40;;;6.40
69435;BMP180;56625;54.322;18.582;2023-04-06T13:00:07;101567.60;;;6.52
69435;BMP180;56625;54.322;18.582;2023-04-06T13:02:36;101575.40;;;6.50
69435;BMP180;56625;54.322;18.582;2023-04-06T13:05:05;101568.80;;;6.20
69435;BMP180;56625;54.322;18.582;2023-04-06T13:07:33;101562.00;;;6.00
69435;BMP180;56625;54.322;18.582;2023-04-06T13:10:01;101553.00;;;6.08
69435;BMP180;56625;54.322;18.582;2023-04-06T13:12:29;101560.00;;;6.00
69435;BMP180;56625;54.322;18.582;2023-04-06T13:14:57;101563.80;;;5.90
69435;BMP180;56625;54.322;18.582;2023-04-06T13:17:27;101569.80;;;5.82
69435;BMP180;56625;54.322;18.582;2023-04-06T13:19:56;101572.60;;;5.70
69435;BMP180;56625;54.322;18.582;2023-04-06T13:22:28;101572.00;;;5.56
69435;BMP180;56625;54.322;18.582;2023-04-06T13:24:56;101570.40;;;5.50
69435;BMP180;56625;54.322;18.582;2023-04-06T13:27:37;101568.20;;;5.36
69435;BMP180;56625;54.322;18.582;2023-04-06T13:30:07;101563.20;;;5.20
69435;BMP180;56625;54.322;18.582;2023-04-06T13:32:35;101565.20;;;5.12
69435;BMP180;56625;54.322;18.582;2023-04-06T13:35:05;101566.60;;;5.10
69435;BMP180;56625;54.322;18.582;2023-04-06T13:37:34;101569.20;;;4.94
69435;BMP180;56625;54.322;18.582;2023-04-06T13:40:03;101551.80;;;4.90
69435;BMP180;56625;54.322;18.582;2023-04-06T13:42:35;101564.00;;;4.80
69435;BMP180;56625;54.322;18.582;2023-04-06T13:45:04;101568.60;;;4.80
69435;BMP180;56625;54.322;18.582;2023-04-06T13:47:32;101569.80;;;4.80
69435;BMP180;56625;54.322;18.582;2023-04-06T13:50:00;101575.60;;;4.80
69435;BMP180;56625;54.322;18.582;2023-04-06T13:52:28;101568.80;;;4.80
69435;BMP180;56625;54.322;18.582;2023-04-06T13:54:56;101573.60;;;4.80
69435;BMP180;56625;54.322;18.582;2023-04-06T13:57:24;101563.20;;;4.80
69435;BMP180;56625;54.322;18.582;2023-04-06T13:59:52;101568.00;;;4.80
69435;BMP180;56625;54.322;18.582;2023-04-06T14:02:20;101565.80;;;4.70
69435;BMP180;56625;54.322;18.582;2023-04-06T14:04:48;101557.00;;;4.70
69435;BMP180;56625;54.322;18.582;2023-04-06T14:07:16;101555.80;;;4.80